sensor_id;sensor_type;location;lat;lon;timestamp;P1;durP1;ratioP1;P2;durP2;ratioP2
42006;SDS011;27696;42.704;23.304;2024-02-14T00:00:02;7.05;;;6.20;;
42006;SDS011;27696;42.704;23.304;2024-02-14T00:02:28;7.82;;;7.03;;
42006;SDS011;27696;42.704;23.304;2024-02-14T00:04:54;8.15;;;6.55;;
42006;SDS011;27696;42.704;23.304;2024-02-14T00:07:20;8.93;;;7.35;;
42006;SDS011;27696;42.704;23.304;2024-02-14T00:09:46;7.80;;;7.00;;
42006;SDS011;27696;42.704;23.304;2024-02-14T00:12:12;7.65;;;6.38;;
42006;SDS011;27696;42.704;23.304;2024-02-14T00:14:38;7.65;;;6.18;;
42006;SDS011;27696;42.704;23.304;2024-02-14T00:17:03;10.82;;;6.70;;
42006;SDS011;27696;42.704;23.304;2024-02-14T00:19:30;9.90;;;7.22;;
42006;SDS011;27696;42.704;23.304;2024-02-14T00:21:56;8.40;;;7.28;;
42006;SDS011;27696;42.704;23.304;2024-02-14T00:24:21;8.60;;;6.95;;
42006;SDS011;27696;42.704;23.304;2024-02-14T00:26:47;8.07;;;6.72;;
42006;SDS011;27696;42.704;23.304;2024-02-14T00:29:14;7.70;;;6.90;;
42006;SDS011;27696;42.704;23.304;2024-02-14T00:31:39;6.18;;;4.80;;
42006;SDS011;27696;42.704;23.304;2024-02-14T00:34:05;7.70;;;6.90;;
42006;SDS011;27696;42.704;23.304;2024-02-14T00:36:31;10.00;;;7.70;;
42006;SDS011;27696;42.704;23.304;2024-02-14T00:38:56;7.75;;;6.95;;
42006;SDS011;27696;42.704;23.304;2024-02-14T00:41:22;8.35;;;7.30;;
42006;SDS011;27696;42.704;23.304;2024-02-14T00:43:47;8.85;;;7.78;;
42006;SDS011;27696;42.704;23.304;2024-02-14T00:46:16;7.93;;;6.20;;
42006;SDS011;27696;42.704;23.304;2024-02-14T00:48:42;11.38;;;7.30;;
42006;SDS011;27696;42.704;23.304;2024-02-14T00:51:09;7.72;;;6.93;;
42006;SDS011;27696;42.704;23.304;2024-02-14T00:53:35;7.82;;;7.03;;
42006;SDS011;27696;42.704;23.304;2024-02-14T00:56:00;8.70;;;7.38;;
42006;SDS011;27696;42.704;23.304;2024-02-14T00:58:26;9.80;;;8.20;;
42006;SDS011;27696;42.704;23.304;2024-02-14T01:00:51;8.48;;;7.63;;
42006;SDS011;27696;42.704;23.304;2024-02-14T01:03:17;9.95;;;7.38;;
42006;SDS011;27696;42.704;23.304;2024-02-14T01:05:42;8.88;;;7.40;;
42006;SDS011;27696;42.704;23.304;2024-02-14T01:08:08;8.70;;;7.32;;
42006;SDS011;27696;42.704;23.304;2024-02-14T01:10:33;8.15;;;7.35;;
42006;SDS011;27696;42.704;23.304;2024-02-14T01:13:00;8.65;;;7.60;;
42006;SDS011;27696;42.704;23.304;2024-02-14T01:15:26;8.52;;;7.50;;
42006;SDS011;27696;42.704;23.304;2024-02-14T01:17:51;10.20;;;8.20;;
42006;SDS011;27696;42.704;23.304;2024-02-14T01:20:17;9.35;;;7.60;;
42006;SDS011;27696;42.704;23.304;2024-02-14T01:22:43;8.02;;;7.22;;
42006;SDS011;27696;42.704;23.304;2024-02-14T01:25:11;11.30;;;8.02;;
42006;SDS011;27696;42.704;23.304;2024-02-14T01:27:36;9.55;;;7.75;;
42006;SDS011;27696;42.704;23.304;2024-02-14T01:30:02;10.88;;;7.88;;
42006;SDS011;27696;42.704;23.304;2024-02-14T01:32:29;10.18;;;8.25;;
42006;SDS011;27696;42.704;23.304;2024-02-14T01:34:55;8.80;;;7.88;;
42006;SDS011;27696;42.704;23.304;2024-02-14T01:37:20;8.95;;;7.95;;
42006;SDS011;27696;42.704;23.304;2024-02-14T01:39:46;10.48;;;7.88;;
42006;SDS011;27696;42.704;23.304;2024-02-14T01:42:11;9.13;;;8.23;;
42006;SDS011;27696;42.704;23.304;2024-02-14T01:44:37;9.48;;;8.57;;
42006;SDS011;27696;42.704;23.304;2024-02-14T01:47:02;10.45;;;8.27;;
42006;SDS011;27696;42.704;23.304;2024-02-14T01:49:28;9.82;;;8.80;;
42006;SDS011;27696;42.704;23.304;2024-02-14T01:51:55;10.88;;;8.50;;
42006;SDS011;27696;42.704;23.304;2024-02-14T01:54:24;9.68;;;8.25;;
42006;SDS011;27696;42.704;23.304;2024-02-14T01:56:50;10.63;;;8.80;;
42006;SDS011;27696;42.704;23.304;2024-02-14T01:59:16;11.15;;;9.15;;
42006;SDS011;27696;42.704;23.304;2024-02-14T02:01:43;12.32;;;9.50;;
42006;SDS011;27696;42.704;23.304;2024-02-14T02:04:08;10.25;;;9.20;;
42006;SDS011;27696;42.704;23.304;2024-02-14T02:06:34;10.07;;;8.95;;
42006;SDS011;27696;42.704;23.304;2024-02-14T02:09:00;10.20;;;8.50;;
42006;SDS011;27696;42.704;23.304;2024-02-14T02:11:26;11.75;;;9.45;;
42006;SDS011;27696;42.704;23.304;2024-02-14T02:13:51;9.95;;;8.35;;
42006;SDS011;27696;42.704;23.304;2024-02-14T02:16:17;10.82;;;8.63;;
42006;SDS011;27696;42.704;23.304;2024-02-14T02:18:44;9.80;;;8.77;;
42006;SDS011;27696;42.704;23.304;2024-02-14T02:21:10;10.52;;;9.13;;
42006;SDS011;27696;42.704;23.304;2024-02-14T02:23:38;10.10;;;8.50;;
42006;SDS011;27696;42.704;23.304;2024-02-14T02:26:05;10.73;;;8.75;;
42006;SDS011;27696;42.704;23.304;2024-02-14T02:28:31;9.88;;;8.88;;
42006;SDS011;27696;42.704;23.304;2024-02-14T02:30:57;12.32;;;8.93;;
42006;SDS011;27696;42.704;23.304;2024-02-14T02:33:22;10.60;;;8.90;;
42006;SDS011;27696;42.704;23.304;2024-02-14T02:35:48;9.27;;;8.38;;
42006;SDS011;27696;42.704;23.304;2024-02-14T02:38:15;10.07;;;8.60;;
42006;SDS011;27696;42.704;23.304;2024-02-14T02:40:41;10.63;;;8.60;;
42006;SDS011;27696;42.704;23.304;2024-02-14T02:43:07;10.95;;;8.98;;
42006;SDS011;27696;42.704;23.304;2024-02-14T02:45:33;10.32;;;9.18;;
42006;SDS011;27696;42.704;23.304;2024-02-14T02:47:59;11.93;;;9.02;;
42006;SDS011;27696;42.704;23.304;2024-02-14T02:50:26;12.30;;;9.30;;
42006;SDS011;27696;42.704;23.304;2024-02-14T02:52:52;10.73;;;9.38;;
42006;SDS011;27696;42.704;23.304;2024-02-14T02:55:17;10.05;;;9.02;;
42006;SDS011;27696;42.704;23.304;2024-02-14T02:57:43;11.40;;;9.73;;
42006;SDS011;27696;42.704;23.304;2024-02-14T03:00:09;11.13;;;9.25;;
42006;SDS011;27696;42.704;23.304;2024-02-14T03:02:36;12.23;;;9.80;;
42006;SDS011;27696;42.704;23.304;2024-02-14T03:05:06;11.80;;;9.00;;
42006;SDS011;27696;42.704;23.304;2024-02-14T03:07:33;10.13;;;8.73;;
42006;SDS011;27696;42.704;23.304;2024-02-14T03:09:59;10.73;;;8.98;;
42006;SDS011;27696;42.704;23.304;2024-02-14T03:12:24;11.85;;;9.43;;
42006;SDS011;27696;42.704;23.304;2024-02-14T03:14:53;11.05;;;9.32;;
42006;SDS011;27696;42.704;23.304;2024-02-14T03:17:18;11.88;;;9.73;;
42006;SDS011;27696;42.704;23.304;2024-02-14T03:19:44;11.32;;;9.63;;
42006;SDS011;27696;42.704;23.304;2024-02-14T03:22:10;11.18;;;9.27;;
42006;SDS011;27696;42.704;23.304;2024-02-14T03:24:36;11.45;;;10.05;;
42006;SDS011;27696;42.704;23.304;2024-02-14T03:27:02;10.85;;;9.57;;
42006;SDS011;27696;42.704;23.304;2024-02-14T03:29:29;13.05;;;9.90;;
42006;SDS011;27696;42.704;23.304;2024-02-14T03:31:55;11.95;;;9.85;;
42006;SDS011;27696;42.704;23.304;2024-02-14T03:34:23;10.80;;;9.65;;
42006;SDS011;27696;42.704;23.304;2024-02-14T03:36:50;10.38;;;9.27;;
42006;SDS011;27696;42.704;23.304;2024-02-14T03:39:15;11.40;;;9.90;;
42006;SDS011;27696;42.704;23.304;2024-02-14T03:41:42;11.68;;;10.48;;
42006;SDS011;27696;42.704;23.304;2024-02-14T03:44:07;14.20;;;10.88;;
42006;SDS011;27696;42.704;23.304;2024-02-14T03:46:33;13.85;;;10.35;;
42006;SDS011;27696;42.704;23.304;2024-02-14T03:49:00;12.88;;;10.23;;
42006;SDS011;27696;42.704;23.304;2024-02-14T03:51:26;10.63;;;9.40;;
42006;SDS011;27696;42.704;23.304;2024-02-14T03:53:51;10.73;;;9.60;;
42006;SDS011;27696;42.704;23.304;2024-02-14T03:56:17;11.57;;;9.57;;
42006;SDS011;27696;42.704;23.304;2024-02-14T03:58:42;13.18;;;9.48;;
42006;SDS011;27696;42.704;23.304;2024-02-14T04:01:08;11.10;;;9.68;;
42006;SDS011;27696;42.704;23.304;2024-02-14T04:03:34;12.27;;;10.15;;
42006;SDS011;27696;42.704;23.304;2024-02-14T04:05:59;11.27;;;10.05;;
42006;SDS011;27696;42.704;23.304;2024-02-14T04:08:25;11.43;;;9.32;;
42006;SDS011;27696;42.704;23.304;2024-02-14T04:10:51;11.98;;;10.68;;
42006;SDS011;27696;42.704;23.304;2024-02-14T04:13:19;13.75;;;10.80;;
42006;SDS011;27696;42.704;23.304;2024-02-14T04:15:44;12.75;;;11.27;;
42006;SDS011;27696;42.704;23.304;2024-02-14T04:18:11;13.93;;;10.32;;
42006;SDS011;27696;42.704;23.304;2024-02-14T04:20:37;12.98;;;10.32;;
42006;SDS011;27696;42.704;23.304;2024-02-14T04:23:02;12.43;;;10.23;;
42006;SDS011;27696;42.704;23.304;2024-02-14T04:25:31;11.93;;;10.73;;
42006;SDS011;27696;42.704;23.304;2024-02-14T04:27:56;15.07;;;11.77;;
42006;SDS011;27696;42.704;23.304;2024-02-14T04:30:22;13.68;;;11.70;;
42006;SDS011;27696;42.704;23.304;2024-02-14T04:32:48;12.88;;;10.52;;
42006;SDS011;27696;42.704;23.304;2024-02-14T04:35:14;13.23;;;11.20;;
42006;SDS011;27696;42.704;23.304;2024-02-14T04:37:39;15.68;;;12.25;;
42006;SDS011;27696;42.704;23.304;2024-02-14T04:40:08;14.13;;;11.70;;
42006;SDS011;27696;42.704;23.304;2024-02-14T04:42:35;16.20;;;12.18;;
42006;SDS011;27696;42.704;23.304;2024-02-14T04:45:00;16.63;;;12.05;;
42006;SDS011;27696;42.704;23.304;2024-02-14T04:47:26;16.85;;;12.18;;
42006;SDS011;27696;42.704;23.304;2024-02-14T04:49:51;14.23;;;12.02;;
42006;SDS011;27696;42.704;23.304;2024-02-14T04:52:17;15.95;;;12.30;;
42006;SDS011;27696;42.704;23.304;2024-02-14T04:54:43;14.18;;;12.68;;
42006;SDS011;27696;42.704;23.304;2024-02-14T04:57:08;15.25;;;12.80;;
42006;SDS011;27696;42.704;23.304;2024-02-14T04:59:34;14.65;;;12.32;;
42006;SDS011;27696;42.704;23.304;2024-02-14T05:01:59;15.30;;;12.70;;
42006;SDS011;27696;42.704;23.304;2024-02-14T05:04:25;15.57;;;13.38;;
42006;SDS011;27696;42.704;23.304;2024-02-14T05:06:50;19.80;;;13.90;;
42006;SDS011;27696;42.704;23.304;2024-02-14T05:09:16;16.08;;;13.07;;
42006;SDS011;27696;42.704;23.304;2024-02-14T05:11:41;19.67;;;12.98;;
42006;SDS011;27696;42.704;23.304;2024-02-14T05:14:07;16.52;;;13.93;;
42006;SDS011;27696;42.704;23.304;2024-02-14T05:16:32;17.42;;;13.68;;
42006;SDS011;27696;42.704;23.304;2024-02-14T05:18:58;18.85;;;13.50;;
42006;SDS011;27696;42.704;23.304;2024-02-14T05:21:23;16.25;;;13.45;;
42006;SDS011;27696;42.704;23.304;2024-02-14T05:23:49;15.95;;;13.25;;
42006;SDS011;27696;42.704;23.304;2024-02-14T05:26:15;16.95;;;14.40;;
42006;SDS011;27696;42.704;23.304;2024-02-14T05:28:41;15.13;;;13.05;;
42006;SDS011;27696;42.704;23.304;2024-02-14T05:31:07;17.50;;;13.60;;
42006;SDS011;27696;42.704;23.304;2024-02-14T05:33:32;15.52;;;12.95;;
42006;SDS011;27696;42.704;23.304;2024-02-14T05:35:58;18.40;;;13.80;;
42006;SDS011;27696;42.704;23.304;2024-02-14T05:38:23;18.67;;;14.15;;
42006;SDS011;27696;42.704;23.304;2024-02-14T05:40:49;15.20;;;12.85;;
42006;SDS011;27696;42.704;23.304;2024-02-14T05:43:15;17.35;;;14.05;;
42006;SDS011;27696;42.704;23.304;2024-02-14T05:45:40;14.98;;;13.13;;
42006;SDS011;27696;42.704;23.304;2024-02-14T05:48:06;15.25;;;12.85;;
42006;SDS011;27696;42.704;23.304;2024-02-14T05:50:32;14.77;;;13.02;;
42006;SDS011;27696;42.704;23.304;2024-02-14T05:52:58;15.20;;;13.07;;
42006;SDS011;27696;42.704;23.304;2024-02-14T05:55:24;17.30;;;13.65;;
42006;SDS011;27696;42.704;23.304;2024-02-14T05:57:50;13.98;;;12.20;;
42006;SDS011;27696;42.704;23.304;2024-02-14T06:00:19;14.50;;;12.10;;
42006;SDS011;27696;42.704;23.304;2024-02-14T06:02:48;16.02;;;13.18;;
42006;SDS011;27696;42.704;23.304;2024-02-14T06:05:13;14.68;;;12.30;;
42006;SDS011;27696;42.704;23.304;2024-02-14T06:07:40;14.90;;;12.95;;
42006;SDS011;27696;42.704;23.304;2024-02-14T06:10:08;15.30;;;13.05;;
42006;SDS011;27696;42.704;23.304;2024-02-14T06:12:34;14.65;;;12.52;;
42006;SDS011;27696;42.704;23.304;2024-02-14T06:15:00;16.98;;;12.40;;
42006;SDS011;27696;42.704;23.304;2024-02-14T06:17:26;16.60;;;12.40;;
42006;SDS011;27696;42.704;23.304;2024-02-14T06:19:52;14.05;;;12.13;;
42006;SDS011;27696;42.704;23.304;2024-02-14T06:22:18;18.15;;;11.43;;
42006;SDS011;27696;42.704;23.304;2024-02-14T06:24:44;14.05;;;12.18;;
42006;SDS011;27696;42.704;23.304;2024-02-14T06:27:09;14.23;;;11.85;;
42006;SDS011;27696;42.704;23.304;2024-02-14T06:29:35;15.27;;;12.82;;
42006;SDS011;27696;42.704;23.304;2024-02-14T06:32:00;15.38;;;11.75;;
42006;SDS011;27696;42.704;23.304;2024-02-14T06:34:26;13.85;;;12.13;;
42006;SDS011;27696;42.704;23.304;2024-02-14T06:36:53;14.52;;;11.95;;
42006;SDS011;27696;42.704;23.304;2024-02-14T06:39:19;18.10;;;11.93;;
42006;SDS011;27696;42.704;23.304;2024-02-14T06:41:45;15.60;;;13.15;;
42006;SDS011;27696;42.704;23.304;2024-02-14T06:44:12;16.48;;;11.90;;
42006;SDS011;27696;42.704;23.304;2024-02-14T06:46:37;14.20;;;11.73;;
42006;SDS011;27696;42.704;23.304;2024-02-14T06:49:03;17.77;;;12.00;;
42006;SDS011;27696;42.704;23.304;2024-02-14T06:51:30;13.27;;;11.63;;
42006;SDS011;27696;42.704;23.304;2024-02-14T06:53:56;16.50;;;11.75;;
42006;SDS011;27696;42.704;23.304;2024-02-14T06:56:22;12.93;;;10.30;;
42006;SDS011;27696;42.704;23.304;2024-02-14T06:58:47;12.35;;;10.75;;
42006;SDS011;27696;42.704;23.304;2024-02-14T07:01:18;15.48;;;10.63;;
42006;SDS011;27696;42.704;23.304;2024-02-14T07:03:47;13.55;;;11.35;;
42006;SDS011;27696;42.704;23.304;2024-02-14T07:06:13;11.43;;;9.93;;
42006;SDS011;27696;42.704;23.304;2024-02-14T07:08:41;15.82;;;10.80;;
42006;SDS011;27696;42.704;23.304;2024-02-14T07:11:07;11.65;;;10.38;;
42006;SDS011;27696;42.704;23.304;2024-02-14T07:13:32;13.50;;;9.88;;
42006;SDS011;27696;42.704;23.304;2024-02-14T07:15:58;13.20;;;10.15;;
42006;SDS011;27696;42.704;23.304;2024-02-14T07:18:23;12.13;;;10.25;;
42006;SDS011;27696;42.704;23.304;2024-02-14T07:20:49;12.02;;;10.07;;
42006;SDS011;27696;42.704;23.304;2024-02-14T07:23:14;11.80;;;10.43;;
42006;SDS011;27696;42.704;23.304;2024-02-14T07:25:40;13.25;;;9.35;;
42006;SDS011;27696;42.704;23.304;2024-02-14T07:28:05;10.55;;;9.23;;
42006;SDS011;27696;42.704;23.304;2024-02-14T07:30:31;12.95;;;9.50;;
42006;SDS011;27696;42.704;23.304;2024-02-14T07:32:56;10.70;;;9.13;;
42006;SDS011;27696;42.704;23.304;2024-02-14T07:35:22;12.30;;;9.13;;
42006;SDS011;27696;42.704;23.304;2024-02-14T07:37:48;11.32;;;8.90;;
42006;SDS011;27696;42.704;23.304;2024-02-14T07:40:13;13.00;;;8.93;;
42006;SDS011;27696;42.704;23.304;2024-02-14T07:42:39;10.70;;;9.05;;
42006;SDS011;27696;42.704;23.304;2024-02-14T07:45:05;9.57;;;8.27;;
42006;SDS011;27696;42.704;23.304;2024-02-14T07:47:30;11.75;;;8.70;;
42006;SDS011;27696;42.704;23.304;2024-02-14T07:49:56;12.00;;;9.10;;
42006;SDS011;27696;42.704;23.304;2024-02-14T07:52:22;12.98;;;9.18;;
42006;SDS011;27696;42.704;23.304;2024-02-14T07:54:51;14.80;;;9.23;;
42006;SDS011;27696;42.704;23.304;2024-02-14T07:57:22;12.00;;;9.48;;
42006;SDS011;27696;42.704;23.304;2024-02-14T07:59:48;12.15;;;9.20;;
42006;SDS011;27696;42.704;23.304;2024-02-14T08:02:13;10.90;;;8.93;;
42006;SDS011;27696;42.704;23.304;2024-02-14T08:04:39;13.43;;;8.98;;
42006;SDS011;27696;42.704;23.304;2024-02-14T08:07:04;12.27;;;8.07;;
42006;SDS011;27696;42.704;23.304;2024-02-14T08:09:30;12.60;;;9.65;;
42006;SDS011;27696;42.704;23.304;2024-02-14T08:11:55;10.68;;;9.18;;
42006;SDS011;27696;42.704;23.304;2024-02-14T08:14:21;13.20;;;9.48;;
42006;SDS011;27696;42.704;23.304;2024-02-14T08:16:46;10.32;;;9.10;;
42006;SDS011;27696;42.704;23.304;2024-02-14T08:19:12;13.35;;;9.95;;
42006;SDS011;27696;42.704;23.304;2024-02-14T08:21:38;12.98;;;8.50;;
42006;SDS011;27696;42.704;23.304;2024-02-14T08:24:03;13.20;;;9.10;;
42006;SDS011;27696;42.704;23.304;2024-02-14T08:26:30;12.85;;;9.02;;
42006;SDS011;27696;42.704;23.304;2024-02-14T08:28:56;13.00;;;8.90;;
42006;SDS011;27696;42.704;23.304;2024-02-14T08:31:23;14.57;;;9.65;;
42006;SDS011;27696;42.704;23.304;2024-02-14T08:33:48;12.73;;;9.25;;
42006;SDS011;27696;42.704;23.304;2024-02-14T08:36:14;10.68;;;8.65;;
42006;SDS011;27696;42.704;23.304;2024-02-14T08:38:42;13.02;;;8.98;;
42006;SDS011;27696;42.704;23.304;2024-02-14T08:41:07;11.60;;;8.90;;
42006;SDS011;27696;42.704;23.304;2024-02-14T08:43:33;10.18;;;8.63;;
42006;SDS011;27696;42.704;23.304;2024-02-14T08:45:58;14.55;;;8.93;;
42006;SDS011;27696;42.704;23.304;2024-02-14T08:48:24;10.13;;;8.77;;
42006;SDS011;27696;42.704;23.304;2024-02-14T08:50:52;15.43;;;9.88;;
42006;SDS011;27696;42.704;23.304;2024-02-14T08:53:18;12.02;;;8.68;;
42006;SDS011;27696;42.704;23.304;2024-02-14T08:55:43;10.93;;;9.13;;
42006;SDS011;27696;42.704;23.304;2024-02-14T08:58:09;11.20;;;7.97;;
42006;SDS011;27696;42.704;23.304;2024-02-14T09:00:35;10.50;;;8.45;;
42006;SDS011;27696;42.704;23.304;2024-02-14T09:03:01;10.50;;;8.93;;
42006;SDS011;27696;42.704;23.304;2024-02-14T09:05:28;12.35;;;9.20;;
42006;SDS011;27696;42.704;23.304;2024-02-14T09:07:53;11.98;;;8.70;;
42006;SDS011;27696;42.704;23.304;2024-02-14T09:10:19;14.45;;;8.60;;
42006;SDS011;27696;42.704;23.304;2024-02-14T09:12:45;13.35;;;9.07;;
42006;SDS011;27696;42.704;23.304;2024-02-14T09:15:11;9.85;;;8.63;;
42006;SDS011;27696;42.704;23.304;2024-02-14T09:17:37;12.85;;;8.25;;
42006;SDS011;27696;42.704;23.304;2024-02-14T09:20:04;14.05;;;8.75;;
42006;SDS011;27696;42.704;23.304;2024-02-14T09:22:37;14.07;;;8.82;;
42006;SDS011;27696;42.704;23.304;2024-02-14T09:25:03;13.70;;;8.30;;
42006;SDS011;27696;42.704;23.304;2024-02-14T09:27:30;13.43;;;7.85;;
42006;SDS011;27696;42.704;23.304;2024-02-14T09:29:56;10.57;;;8.77;;
42006;SDS011;27696;42.704;23.304;2024-02-14T09:32:21;13.85;;;9.20;;
42006;SDS011;27696;42.704;23.304;2024-02-14T09:34:47;12.73;;;8.88;;
42006;SDS011;27696;42.704;23.304;2024-02-14T09:37:12;14.38;;;8.60;;
42006;SDS011;27696;42.704;23.304;2024-02-14T09:39:38;10.75;;;7.93;;
42006;SDS011;27696;42.704;23.304;2024-02-14T09:42:06;11.30;;;8.88;;
42006;SDS011;27696;42.704;23.304;2024-02-14T09:44:36;12.20;;;8.75;;
42006;SDS011;27696;42.704;23.304;2024-02-14T09:47:04;9.60;;;7.20;;
42006;SDS011;27696;42.704;23.304;2024-02-14T09:49:30;11.18;;;8.93;;
42006;SDS011;27696;42.704;23.304;2024-02-14T09:51:56;9.55;;;8.10;;
42006;SDS011;27696;42.704;23.304;2024-02-14T09:54:23;8.07;;;7.25;;
42006;SDS011;27696;42.704;23.304;2024-02-14T09:56:51;9.90;;;8.15;;
42006;SDS011;27696;42.704;23.304;2024-02-14T09:59:21;11.18;;;7.95;;
42006;SDS011;27696;42.704;23.304;2024-02-14T10:01:47;9.57;;;8.10;;
42006;SDS011;27696;42.704;23.304;2024-02-14T10:04:14;10.00;;;7.93;;
42006;SDS011;27696;42.704;23.304;2024-02-14T10:06:40;12.18;;;7.45;;
42006;SDS011;27696;42.704;23.304;2024-02-14T10:09:05;8.65;;;7.50;;
42006;SDS011;27696;42.704;23.304;2024-02-14T10:11:32;8.93;;;7.25;;
42006;SDS011;27696;42.704;23.304;2024-02-14T10:13:58;10.60;;;7.88;;
42006;SDS011;27696;42.704;23.304;2024-02-14T10:16:28;9.77;;;7.28;;
42006;SDS011;27696;42.704;23.304;2024-02-14T10:18:53;10.13;;;7.70;;
42006;SDS011;27696;42.704;23.304;2024-02-14T10:21:19;11.60;;;7.88;;
42006;SDS011;27696;42.704;23.304;2024-02-14T10:23:45;10.95;;;7.82;;
42006;SDS011;27696;42.704;23.304;2024-02-14T10:26:12;9.40;;;7.40;;
42006;SDS011;27696;42.704;23.304;2024-02-14T10:28:42;11.95;;;7.88;;
42006;SDS011;27696;42.704;23.304;2024-02-14T10:31:09;10.68;;;7.63;;
42006;SDS011;27696;42.704;23.304;2024-02-14T10:33:35;8.32;;;7.50;;
42006;SDS011;27696;42.704;23.304;2024-02-14T10:36:01;11.85;;;6.85;;
42006;SDS011;27696;42.704;23.304;2024-02-14T10:38:30;10.02;;;7.93;;
42006;SDS011;27696;42.704;23.304;2024-02-14T10:40:57;11.75;;;8.18;;
42006;SDS011;27696;42.704;23.304;2024-02-14T10:43:24;14.40;;;7.38;;
42006;SDS011;27696;42.704;23.304;2024-02-14T10:45:50;9.38;;;7.63;;
42006;SDS011;27696;42.704;23.304;2024-02-14T10:48:17;13.85;;;8.30;;
42006;SDS011;27696;42.704;23.304;2024-02-14T10:50:43;12.20;;;9.10;;
42006;SDS011;27696;42.704;23.304;2024-02-14T10:53:13;13.18;;;8.82;;
42006;SDS011;27696;42.704;23.304;2024-02-14T10:55:44;10.15;;;7.82;;
42006;SDS011;27696;42.704;23.304;2024-02-14T10:58:12;12.50;;;8.20;;
42006;SDS011;27696;42.704;23.304;2024-02-14T11:00:39;9.98;;;8.30;;
42006;SDS011;27696;42.704;23.304;2024-02-14T11:03:06;11.82;;;7.80;;
42006;SDS011;27696;42.704;23.304;2024-02-14T11:05:31;9.80;;;7.53;;
42006;SDS011;27696;42.704;23.304;2024-02-14T11:08:08;12.05;;;7.72;;
42006;SDS011;27696;42.704;23.304;2024-02-14T11:10:36;12.70;;;7.88;;
42006;SDS011;27696;42.704;23.304;2024-02-14T11:13:02;9.63;;;7.47;;
42006;SDS011;27696;42.704;23.304;2024-02-14T11:15:28;11.23;;;7.15;;
42006;SDS011;27696;42.704;23.304;2024-02-14T11:18:03;10.13;;;7.50;;
42006;SDS011;27696;42.704;23.304;2024-02-14T11:20:33;12.65;;;8.43;;
42006;SDS011;27696;42.704;23.304;2024-02-14T11:23:04;12.43;;;8.48;;
42006;SDS011;27696;42.704;23.304;2024-02-14T11:25:31;9.85;;;8.05;;
42006;SDS011;27696;42.704;23.304;2024-02-14T11:27:59;9.25;;;7.75;;
42006;SDS011;27696;42.704;23.304;2024-02-14T11:30:30;14.07;;;8.50;;
42006;SDS011;27696;42.704;23.304;2024-02-14T11:35:43;11.40;;;7.53;;
42006;SDS011;27696;42.704;23.304;2024-02-14T11:38:09;10.27;;;7.90;;
42006;SDS011;27696;42.704;23.304;2024-02-14T11:40:36;9.52;;;7.57;;
42006;SDS011;27696;42.704;23.304;2024-02-14T11:43:04;10.23;;;7.43;;
42006;SDS011;27696;42.704;23.304;2024-02-14T11:45:30;10.00;;;7.68;;
42006;SDS011;27696;42.704;23.304;2024-02-14T11:47:56;10.25;;;7.80;;
42006;SDS011;27696;42.704;23.304;2024-02-14T11:50:21;10.68;;;7.47;;
42006;SDS011;27696;42.704;23.304;2024-02-14T11:52:47;14.50;;;8.50;;
42006;SDS011;27696;42.704;23.304;2024-02-14T11:55:13;10.73;;;7.95;;
42006;SDS011;27696;42.704;23.304;2024-02-14T11:57:42;9.10;;;6.80;;
42006;SDS011;27696;42.704;23.304;2024-02-14T12:00:08;13.63;;;7.68;;
42006;SDS011;27696;42.704;23.304;2024-02-14T12:02:34;9.57;;;7.82;;
42006;SDS011;27696;42.704;23.304;2024-02-14T12:05:00;12.55;;;7.63;;
42006;SDS011;27696;42.704;23.304;2024-02-14T12:07:29;12.07;;;7.82;;
42006;SDS011;27696;42.704;23.304;2024-02-14T12:09:55;10.98;;;7.38;;
42006;SDS011;27696;42.704;23.304;2024-02-14T12:12:21;14.52;;;7.32;;
42006;SDS011;27696;42.704;23.304;2024-02-14T12:14:51;9.65;;;7.18;;
42006;SDS011;27696;42.704;23.304;2024-02-14T12:17:17;10.77;;;7.28;;
42006;SDS011;27696;42.704;23.304;2024-02-14T12:19:46;10.95;;;7.38;;
42006;SDS011;27696;42.704;23.304;2024-02-14T12:22:13;10.93;;;7.15;;
42006;SDS011;27696;42.704;23.304;2024-02-14T12:24:46;9.23;;;7.32;;
42006;SDS011;27696;42.704;23.304;2024-02-14T12:27:13;10.20;;;6.72;;
42006;SDS011;27696;42.704;23.304;2024-02-14T12:29:38;10.40;;;6.65;;
42006;SDS011;27696;42.704;23.304;2024-02-14T12:32:07;12.57;;;7.65;;
42006;SDS011;27696;42.704;23.304;2024-02-14T12:34:33;7.82;;;6.30;;
42006;SDS011;27696;42.704;23.304;2024-02-14T12:36:59;11.70;;;6.85;;
42006;SDS011;27696;42.704;23.304;2024-02-14T12:39:26;11.38;;;8.23;;
42006;SDS011;27696;42.704;23.304;2024-02-14T12:41:52;10.82;;;7.93;;
42006;SDS011;27696;42.704;23.304;2024-02-14T12:44:18;10.25;;;6.82;;
42006;SDS011;27696;42.704;23.304;2024-02-14T12:46:43;8.38;;;7.35;;
42006;SDS011;27696;42.704;23.304;2024-02-14T12:49:09;13.25;;;7.60;;
42006;SDS011;27696;42.704;23.304;2024-02-14T12:51:36;10.88;;;7.93;;
42006;SDS011;27696;42.704;23.304;2024-02-14T12:54:03;11.88;;;7.72;;
42006;SDS011;27696;42.704;23.304;2024-02-14T12:56:30;12.90;;;6.97;;
42006;SDS011;27696;42.704;23.304;2024-02-14T12:58:56;8.55;;;6.93;;
42006;SDS011;27696;42.704;23.304;2024-02-14T13:01:22;10.45;;;7.38;;
42006;SDS011;27696;42.704;23.304;2024-02-14T13:03:48;9.32;;;7.15;;
42006;SDS011;27696;42.704;23.304;2024-02-14T13:06:13;9.82;;;6.82;;
42006;SDS011;27696;42.704;23.304;2024-02-14T13:08:39;8.98;;;7.22;;
42006;SDS011;27696;42.704;23.304;2024-02-14T13:11:05;11.48;;;7.25;;
42006;SDS011;27696;42.704;23.304;2024-02-14T13:13:30;11.35;;;7.03;;
42006;SDS011;27696;42.704;23.304;2024-02-14T13:15:56;10.63;;;7.32;;
42006;SDS011;27696;42.704;23.304;2024-02-14T13:18:22;9.05;;;7.00;;
42006;SDS011;27696;42.704;23.304;2024-02-14T13:20:47;10.25;;;6.97;;
42006;SDS011;27696;42.704;23.304;2024-02-14T13:23:13;12.48;;;7.10;;
42006;SDS011;27696;42.704;23.304;2024-02-14T13:25:39;8.95;;;6.47;;
42006;SDS011;27696;42.704;23.304;2024-02-14T13:28:05;10.18;;;6.85;;
42006;SDS011;27696;42.704;23.304;2024-02-14T13:30:31;11.43;;;7.20;;
42006;SDS011;27696;42.704;23.304;2024-02-14T13:32:56;13.57;;;7.53;;
42006;SDS011;27696;42.704;23.304;2024-02-14T13:35:22;8.52;;;6.63;;
42006;SDS011;27696;42.704;23.304;2024-02-14T13:37:48;18.60;;;7.50;;
42006;SDS011;27696;42.704;23.304;2024-02-14T13:40:14;11.48;;;6.88;;
42006;SDS011;27696;42.704;23.304;2024-02-14T13:42:40;9.88;;;7.22;;
42006;SDS011;27696;42.704;23.304;2024-02-14T13:45:05;11.35;;;6.88;;
42006;SDS011;27696;42.704;23.304;2024-02-14T13:47:37;11.18;;;6.60;;
42006;SDS011;27696;42.704;23.304;2024-02-14T13:50:07;9.02;;;6.70;;
42006;SDS011;27696;42.704;23.304;2024-02-14T13:52:33;9.43;;;6.65;;
42006;SDS011;27696;42.704;23.304;2024-02-14T13:54:59;9.25;;;7.28;;
42006;SDS011;27696;42.704;23.304;2024-02-14T13:57:27;16.80;;;7.30;;
42006;SDS011;27696;42.704;23.304;2024-02-14T13:59:54;14.27;;;6.88;;
42006;SDS011;27696;42.704;23.304;2024-02-14T14:02:19;10.52;;;7.45;;
42006;SDS011;27696;42.704;23.304;2024-02-14T14:04:45;12.35;;;7.18;;
42006;SDS011;27696;42.704;23.304;2024-02-14T14:07:11;10.75;;;6.97;;
42006;SDS011;27696;42.704;23.304;2024-02-14T14:09:36;11.45;;;7.20;;
42006;SDS011;27696;42.704;23.304;2024-02-14T14:12:02;11.20;;;6.95;;
42006;SDS011;27696;42.704;23.304;2024-02-14T14:14:28;12.60;;;7.22;;
42006;SDS011;27696;42.704;23.304;2024-02-14T14:16:55;10.57;;;6.47;;